This is the latest recevied weather packets stored in our database for station/object DH5DY-6. If no packets are shown the sender has not sent any weather packets the latest 10 day(s).
| Time | Temp. | Humidity | Pressure | Rain* | Wind** | Luminosity | Snow |
|---|---|---|---|---|---|---|---|
| 1787998356 | 20° C | 75% | 1011.8 hPa | 0 mm | - | 745 W/m² | - |
| 1787997155 | 18.89° C | 79% | 1011.8 hPa | 0 mm | - | 617 W/m² | - |
| 1787996555 | 18.89° C | 79% | 1012 hPa | 0 mm | - | 599 W/m² | - |
| 1787995355 | 18.33° C | 80% | 1012.2 hPa | 0 mm | - | 200 W/m² | - |
| 1787994755 | 18.33° C | 81% | 1012.2 hPa | 0 mm | - | 292 W/m² | - |
| 1787993558 | 17.78° C | 84% | 1012.2 hPa | 0 mm | - | 155 W/m² | - |
| 1787992955 | 17.22° C | 85% | 1012 hPa | 0 mm | - | 100 W/m² | - |
| 1787991755 | 16.11° C | 89% | 1012.2 hPa | 0 mm | - | 79 W/m² | - |
| 1787989955 | 14.44° C | 96% | 1012.1 hPa | 0 mm | - | 132 W/m² | - |
| 1787989355 | 13.89° C | 96% | 1012.1 hPa | 0 mm | - | 51 W/m² | - |
| 1787988155 | 12.78° C | 96% | 1012 hPa | 0 mm | - | 37 W/m² | - |
| 1787987555 | 12.22° C | 96% | 1011.9 hPa | 0 mm | - | 40 W/m² | - |
| 1787986355 | 11.67° C | 95% | 1011.9 hPa | 0 mm | - | 39 W/m² | - |
| 1787985754 | 11.67° C | 95% | 1011.8 hPa | 0 mm | - | 35 W/m² | - |
| 1787984554 | 11.67° C | 95% | 1011.7 hPa | 0 mm | - | 42 W/m² | - |
| 1787983955 | 11.67° C | 95% | 1011.7 hPa | 0 mm | - | 69 W/m² | - |
| 1787982754 | 11.11° C | 95% | 1011.6 hPa | 0 mm | - | 76 W/m² | - |
| 1787982155 | 11.11° C | 95% | 1011.6 hPa | 0 mm | - | 58 W/m² | - |
| 1787980954 | 11.11° C | 95% | 1011.5 hPa | 0 mm | - | 40 W/m² | - |
| 1787980355 | 11.11° C | 95% | 1011.5 hPa | 0 mm | - | 26 W/m² | - |
| 1787979155 | 10.56° C | 95% | 1011.4 hPa | 0 mm | - | 7 W/m² | - |
| 1787978555 | 10.56° C | 95% | 1011.5 hPa | 0 mm | - | 0 W/m² | - |
| 1787976755 | 10.56° C | 94% | 1011.5 hPa | 0 mm | - | 0 W/m² | - |
| 1787975555 | 10.56° C | 94% | 1011.5 hPa | 0 mm | - | 0 W/m² | - |
| 1787974955 | 10.56° C | 94% | 1011.6 hPa | 0 mm | - | 0 W/m² | - |
* Rain latest hour (hover to see other rain measurements)
** Current wind speed in m/s (hover to see current wind gust speed)